createdAt,value
2022-11-23T00:01:50.785Z,99145.91
2022-11-23T00:04:35.773Z,99130.56
2022-11-23T00:07:20.784Z,99130.69
2022-11-23T00:10:06.160Z,99115.66
2022-11-23T00:12:51.251Z,99126.34
2022-11-23T00:15:36.072Z,99125.59
2022-11-23T00:18:21.407Z,99096.16
2022-11-23T00:21:08.196Z,99118.31
2022-11-23T00:23:53.215Z,99119.00
2022-11-23T00:26:38.628Z,99120.59
2022-11-23T00:29:23.894Z,99117.09
2022-11-23T00:32:09.011Z,99119.81
2022-11-23T00:34:54.143Z,99116.50
2022-11-23T00:37:39.316Z,99122.28
2022-11-23T00:40:24.238Z,99117.63
2022-11-23T00:43:09.384Z,99118.53
2022-11-23T00:46:18.470Z,99112.69
2022-11-23T00:49:04.334Z,99106.97
2022-11-23T00:51:49.516Z,99110.38
2022-11-23T00:54:34.839Z,99098.97
2022-11-23T00:57:19.751Z,99108.00
2022-11-23T01:00:06.674Z,99107.38
2022-11-23T01:02:51.675Z,99109.13
2022-11-23T01:05:37.847Z,99108.94
2022-11-23T01:08:23.087Z,99104.38
2022-11-23T01:11:12.122Z,99113.16
2022-11-23T01:13:57.538Z,99105.38
2022-11-23T01:16:42.606Z,99109.34
2022-11-23T01:19:27.727Z,99098.94
2022-11-23T01:22:13.055Z,99103.53
2022-11-23T01:24:58.085Z,99086.72
2022-11-23T01:27:43.008Z,99085.91
2022-11-23T01:30:28.100Z,99096.41
2022-11-23T01:33:13.511Z,99098.16
2022-11-23T01:35:58.540Z,99079.44
2022-11-23T01:38:44.324Z,99098.09
2022-11-23T01:41:32.712Z,99089.31
2022-11-23T01:44:24.958Z,99094.59
2022-11-23T01:47:10.825Z,99072.47
2022-11-23T01:49:55.934Z,99091.75
2022-11-23T01:52:41.185Z,99082.44
2022-11-23T01:55:27.648Z,99077.81
2022-11-23T01:58:17.460Z,99074.13
2022-11-23T02:01:03.064Z,99071.13
2022-11-23T02:03:49.163Z,99058.75
2022-11-23T02:06:35.231Z,99074.13
2022-11-23T02:09:22.360Z,99041.22
2022-11-23T02:12:14.558Z,99048.22
2022-11-23T02:14:59.717Z,99031.25
2022-11-23T02:17:45.346Z,99040.03
2022-11-23T02:20:31.086Z,99048.63
2022-11-23T02:23:25.225Z,99046.69
2022-11-23T02:26:16.062Z,99044.59
2022-11-23T02:29:16.177Z,99029.44
2022-11-23T02:32:01.261Z,99025.41
2022-11-23T02:34:46.522Z,99002.34
2022-11-23T02:37:31.742Z,99012.88
2022-11-23T02:40:27.353Z,98995.13
2022-11-23T02:46:16.245Z,98981.31
2022-11-23T02:49:01.592Z,98993.34
2022-11-23T02:51:46.876Z,98994.47
2022-11-23T02:54:32.191Z,98994.84
2022-11-23T02:57:17.112Z,98985.66
2022-11-23T03:00:02.282Z,98958.91
2022-11-23T03:02:47.240Z,98974.56
2022-11-23T03:05:32.487Z,98981.09
2022-11-23T03:08:17.695Z,98976.75
2022-11-23T03:11:02.739Z,98975.13
2022-11-23T03:13:47.803Z,98979.63
2022-11-23T03:16:34.101Z,98981.66
2022-11-23T03:19:19.365Z,98973.00
2022-11-23T03:22:04.477Z,98960.38
2022-11-23T03:24:49.542Z,98963.22
2022-11-23T03:27:34.934Z,98963.34
2022-11-23T03:30:20.117Z,98963.34
2022-11-23T03:33:08.343Z,98955.59
2022-11-23T03:35:53.403Z,98945.25
2022-11-23T03:38:38.751Z,98943.56
2022-11-23T03:41:23.947Z,98930.78
2022-11-23T03:44:09.130Z,98927.53
2022-11-23T03:46:54.728Z,98925.50
2022-11-23T03:49:39.679Z,98926.44
2022-11-23T03:52:24.694Z,98924.88
2022-11-23T03:55:09.706Z,98912.88
2022-11-23T03:57:59.400Z,98918.06
2022-11-23T04:00:44.472Z,98906.88
2022-11-23T04:03:29.545Z,98912.34
2022-11-23T04:06:14.519Z,98916.69
2022-11-23T04:09:02.346Z,98908.94
2022-11-23T04:11:47.722Z,98914.63
2022-11-23T04:14:33.053Z,98902.00
2022-11-23T04:17:18.379Z,98878.63
2022-11-23T04:20:04.773Z,98888.94
2022-11-23T04:22:49.991Z,98894.47
2022-11-23T04:25:35.189Z,98895.38
2022-11-23T04:28:20.445Z,98888.75
2022-11-23T04:31:05.470Z,98899.72
2022-11-23T04:33:50.682Z,98902.28
2022-11-23T04:36:35.774Z,98899.28
2022-11-23T04:39:20.796Z,98894.28
2022-11-23T04:42:05.973Z,98888.94
2022-11-23T04:44:51.044Z,98893.16
2022-11-23T04:47:36.170Z,98887.25
2022-11-23T04:50:21.103Z,98890.47
2022-11-23T04:53:06.077Z,98873.19
2022-11-23T04:55:51.161Z,98880.47
2022-11-23T04:58:36.640Z,98889.84
2022-11-23T05:01:21.851Z,98885.06
2022-11-23T05:04:06.732Z,98884.25
2022-11-23T05:06:51.853Z,98878.34
2022-11-23T05:09:37.100Z,98868.44
2022-11-23T05:12:22.440Z,98859.13
2022-11-23T05:15:08.312Z,98862.19
2022-11-23T05:17:57.818Z,98843.47
2022-11-23T05:20:44.827Z,98827.81
2022-11-23T05:23:30.018Z,98847.69
2022-11-23T05:26:14.900Z,98848.66
2022-11-23T05:29:00.063Z,98854.81
2022-11-23T05:31:44.951Z,98835.28
2022-11-23T05:34:29.823Z,98836.91
2022-11-23T05:37:14.582Z,98837.50
2022-11-23T05:39:59.660Z,98836.78
2022-11-23T05:42:44.768Z,98826.44
2022-11-23T05:45:29.775Z,98817.94
2022-11-23T05:48:15.286Z,98813.00
2022-11-23T05:51:05.243Z,98796.25
2022-11-23T05:53:50.358Z,98799.38
2022-11-23T05:56:40.034Z,98778.19
2022-11-23T05:59:25.455Z,98803.31
2022-11-23T06:02:10.406Z,98804.13
2022-11-23T06:04:55.292Z,98789.47
2022-11-23T06:07:40.284Z,98792.41
2022-11-23T06:10:25.628Z,98772.88
2022-11-23T06:13:10.796Z,98779.00
2022-11-23T06:15:55.724Z,98774.25
2022-11-23T06:18:40.854Z,98776.25
2022-11-23T06:21:26.056Z,98754.44
2022-11-23T06:24:11.192Z,98759.31
2022-11-23T06:26:56.013Z,98764.19
2022-11-23T06:29:41.282Z,98736.59
2022-11-23T06:32:26.230Z,98749.25
2022-11-23T06:35:11.476Z,98722.16
2022-11-23T06:37:56.479Z,98747.50
2022-11-23T06:40:41.915Z,98709.84
2022-11-23T06:43:28.100Z,98714.91
2022-11-23T06:46:13.110Z,98713.34
2022-11-23T06:48:58.676Z,98707.34
2022-11-23T06:51:43.594Z,98707.50
2022-11-23T06:54:28.867Z,98688.47
2022-11-23T06:57:14.166Z,98672.72
2022-11-23T06:59:59.171Z,98674.06
2022-11-23T07:02:50.557Z,98671.47
2022-11-23T07:05:38.612Z,98661.91
2022-11-23T07:08:24.317Z,98637.69
2022-11-23T07:11:11.528Z,98647.19
2022-11-23T07:13:56.915Z,98642.88
2022-11-23T07:16:42.702Z,98640.47
2022-11-23T07:19:27.653Z,98637.81
2022-11-23T07:22:12.661Z,98592.66
2022-11-23T07:24:57.726Z,98614.28
2022-11-23T07:27:43.211Z,98626.66
2022-11-23T07:30:30.807Z,98628.47
2022-11-23T07:33:16.309Z,98596.53
2022-11-23T07:36:02.782Z,98624.41
2022-11-23T07:38:47.743Z,98620.97
2022-11-23T07:41:32.675Z,98623.72
2022-11-23T07:44:17.625Z,98622.38
2022-11-23T07:47:02.983Z,98651.97
2022-11-23T07:49:48.034Z,98637.06
2022-11-23T07:52:35.149Z,98641.16
2022-11-23T07:55:20.822Z,98600.69
2022-11-23T07:58:06.516Z,98622.91
2022-11-23T08:00:51.882Z,98619.88
2022-11-23T08:03:37.261Z,98610.41
2022-11-23T08:06:22.612Z,98592.72
2022-11-23T08:09:08.422Z,98612.19
2022-11-23T08:11:53.329Z,98603.78
2022-11-23T08:14:38.715Z,98607.06
2022-11-23T08:17:23.854Z,98598.97
2022-11-23T08:20:09.606Z,98591.13
2022-11-23T08:22:58.308Z,98569.00
2022-11-23T08:25:43.195Z,98545.00
2022-11-23T08:28:28.185Z,98563.59
2022-11-23T08:31:14.708Z,98553.84
2022-11-23T08:34:03.250Z,98532.75
2022-11-23T08:36:49.586Z,98529.94
2022-11-23T08:39:34.892Z,98535.69
2022-11-23T08:42:19.963Z,98532.25
2022-11-23T08:45:06.536Z,98536.25
2022-11-23T08:47:52.918Z,98525.22
2022-11-23T08:50:38.774Z,98516.41
2022-11-23T08:53:23.906Z,98493.91
2022-11-23T08:56:09.941Z,98499.09
2022-11-23T08:58:54.907Z,98512.53
2022-11-23T09:01:39.833Z,98492.97
2022-11-23T09:04:27.515Z,98477.91
2022-11-23T09:07:12.663Z,98479.50
2022-11-23T09:09:57.643Z,98468.25
2022-11-23T09:12:42.967Z,98468.88
2022-11-23T09:15:27.837Z,98481.44
2022-11-23T09:18:12.776Z,98485.25
2022-11-23T09:20:58.140Z,98467.78
2022-11-23T09:23:43.346Z,98490.66
2022-11-23T09:26:28.606Z,98514.72
2022-11-23T09:29:13.895Z,98508.38
2022-11-23T09:31:59.049Z,98520.16
2022-11-23T09:34:45.315Z,98515.44
2022-11-23T09:37:30.454Z,98508.81
2022-11-23T09:40:17.464Z,98509.78
2022-11-23T09:43:27.675Z,98517.75
2022-11-23T09:46:35.631Z,98528.56
2022-11-23T09:49:29.736Z,98523.03
2022-11-23T09:52:18.251Z,98509.97
2022-11-23T09:55:16.568Z,98520.53
2022-11-23T09:58:05.929Z,98526.97
2022-11-23T10:00:59.294Z,98524.94
2022-11-23T10:03:48.724Z,98523.63
2022-11-23T10:06:48.541Z,98550.88
2022-11-23T10:09:48.299Z,98584.00
2022-11-23T10:12:52.133Z,98581.88
2022-11-23T10:16:14.664Z,98581.88
2022-11-23T10:19:19.834Z,98602.41
2022-11-23T10:22:22.340Z,98599.88
2022-11-23T10:25:29.135Z,98608.03
2022-11-23T10:28:17.323Z,98622.88
2022-11-23T10:31:20.117Z,98637.16
2022-11-23T10:34:11.656Z,98643.56
2022-11-23T10:36:57.073Z,98659.91
2022-11-23T10:39:42.016Z,98661.25
2022-11-23T10:42:36.302Z,98668.19
2022-11-23T10:45:24.586Z,98669.25
2022-11-23T10:48:09.934Z,98685.25
2022-11-23T10:51:15.972Z,98693.09
2022-11-23T10:54:05.657Z,98702.81
2022-11-23T10:56:52.630Z,98704.34
2022-11-23T10:59:39.101Z,98702.16
2022-11-23T11:02:24.159Z,98716.88
2022-11-23T11:08:54.983Z,98736.25
2022-11-23T11:11:47.442Z,98741.03
2022-11-23T11:14:42.768Z,98748.72
2022-11-23T11:17:31.887Z,98748.81
2022-11-23T11:20:32.829Z,98768.53
2022-11-23T11:23:21.647Z,98778.41
2022-11-23T11:26:20.352Z,98781.38
2022-11-23T11:29:09.938Z,98773.09
2022-11-23T11:32:05.837Z,98785.22
2022-11-23T11:34:55.262Z,98792.06
2022-11-23T11:37:46.273Z,98784.41
2022-11-23T11:40:52.550Z,98801.63
2022-11-23T11:43:51.051Z,98781.19
2022-11-23T11:46:40.827Z,98805.44
2022-11-23T11:49:33.115Z,98814.44
2022-11-23T11:52:23.819Z,98806.84
2022-11-23T11:55:21.164Z,98824.94
2022-11-23T11:58:11.548Z,98816.78
2022-11-23T12:01:08.488Z,98823.72
2022-11-23T12:03:59.771Z,98815.78
2022-11-23T12:06:52.800Z,98836.44
2022-11-23T12:09:42.476Z,98844.09
2022-11-23T12:12:35.805Z,98846.88
2022-11-23T12:15:48.332Z,98854.34
2022-11-23T12:18:45.800Z,98852.16
2022-11-23T12:22:06.793Z,98867.50
2022-11-23T12:25:16.080Z,98877.34
2022-11-23T12:28:20.197Z,98869.34
2022-11-23T12:31:32.611Z,98874.28
2022-11-23T12:34:32.988Z,98880.56
2022-11-23T12:37:39.251Z,98885.22
2022-11-23T12:40:48.014Z,98893.81
2022-11-23T12:44:03.099Z,98872.31
2022-11-23T12:46:47.921Z,98887.22
2022-11-23T12:49:46.468Z,98900.06
2022-11-23T12:52:50.234Z,98901.72
2022-11-23T12:55:53.339Z,98893.97
2022-11-23T12:58:39.575Z,98913.22
2022-11-23T13:01:35.083Z,98893.81
2022-11-23T13:04:38.274Z,98901.41
2022-11-23T13:07:49.461Z,98925.72
2022-11-23T13:10:53.084Z,98926.03
2022-11-23T13:14:09.612Z,98929.16
2022-11-23T13:17:22.959Z,98931.66
2022-11-23T13:20:39.323Z,98927.06
2022-11-23T13:23:24.432Z,98942.47
2022-11-23T13:26:18.293Z,98936.22
2022-11-23T13:30:00.213Z,98953.50
2022-11-23T13:32:54.330Z,98940.97
2022-11-23T13:35:42.795Z,98966.16
2022-11-23T13:38:36.459Z,98960.22
2022-11-23T13:41:33.795Z,98968.09
2022-11-23T13:44:19.068Z,98966.28
2022-11-23T13:47:06.989Z,98969.91
2022-11-23T13:50:19.015Z,98979.38
2022-11-23T13:53:18.719Z,98993.94
2022-11-23T13:56:22.480Z,98991.31
2022-11-23T13:59:31.274Z,98997.38
2022-11-23T14:02:30.401Z,99003.75
2022-11-23T14:05:49.757Z,99011.63
2022-11-23T14:08:38.526Z,99016.50
2022-11-23T14:11:25.381Z,99016.13
2022-11-23T14:14:20.916Z,99014.78
2022-11-23T14:17:29.091Z,99007.50
2022-11-23T14:20:23.256Z,99016.56
2022-11-23T14:23:39.272Z,99020.03
2022-11-23T14:26:43.029Z,99015.97
2022-11-23T14:29:46.245Z,99018.75
2022-11-23T14:32:47.687Z,99028.91
2022-11-23T14:36:11.354Z,99029.22
2022-11-23T14:39:16.582Z,99029.16
2022-11-23T14:42:04.586Z,99032.03
2022-11-23T14:44:51.034Z,99022.91
2022-11-23T14:47:37.768Z,99037.44
2022-11-23T14:50:24.324Z,99042.00
2022-11-23T14:53:10.902Z,99038.69
2022-11-23T14:55:58.536Z,99036.13
2022-11-23T14:58:44.876Z,99049.09
2022-11-23T15:01:30.607Z,99063.63
2022-11-23T15:04:25.383Z,99041.00
2022-11-23T15:07:16.800Z,99044.00
2022-11-23T15:10:16.592Z,99065.03
2022-11-23T15:13:01.687Z,99053.50
2022-11-23T15:15:52.285Z,99067.97
2022-11-23T15:18:40.440Z,99074.63
2022-11-23T15:21:27.853Z,99088.16
2022-11-23T15:24:25.075Z,99092.69
2022-11-23T15:27:16.831Z,99099.31
2022-11-23T15:30:02.152Z,99107.16
2022-11-23T15:32:58.214Z,99109.22
2022-11-23T15:35:43.737Z,99119.06
2022-11-23T15:38:28.996Z,99108.09
2022-11-23T15:41:14.587Z,99124.72
2022-11-23T15:44:01.826Z,99130.25
2022-11-23T15:46:49.189Z,99108.22
2022-11-23T15:49:38.765Z,99120.91
2022-11-23T15:52:23.805Z,99134.41
2022-11-23T15:55:14.882Z,99145.44
2022-11-23T15:58:03.015Z,99149.28
2022-11-23T16:00:51.875Z,99147.53
2022-11-23T16:03:47.526Z,99154.03
2022-11-23T16:06:42.078Z,99158.19
2022-11-23T16:09:56.812Z,99165.63
2022-11-23T16:12:51.160Z,99179.13
2022-11-23T16:15:40.699Z,99191.13
2022-11-23T16:18:31.860Z,99195.06
2022-11-23T16:21:19.729Z,99197.84
2022-11-23T16:24:05.247Z,99201.72
2022-11-23T16:26:50.463Z,99204.75
2022-11-23T16:29:37.090Z,99212.06
2022-11-23T16:32:28.009Z,99207.63
2022-11-23T16:35:20.571Z,99223.88
2022-11-23T16:38:06.184Z,99232.56
2022-11-23T16:40:51.286Z,99221.13
2022-11-23T16:43:36.251Z,99231.44
2022-11-23T16:46:21.867Z,99235.72
2022-11-23T16:49:15.028Z,99242.47
2022-11-23T16:52:00.319Z,99220.44
2022-11-23T16:54:45.381Z,99221.53
2022-11-23T16:57:34.584Z,99244.66
2022-11-23T17:00:22.403Z,99248.53
2022-11-23T17:03:15.582Z,99265.16
2022-11-23T17:06:00.757Z,99267.50
2022-11-23T17:08:45.877Z,99273.44
2022-11-23T17:11:31.247Z,99256.19
2022-11-23T17:14:19.155Z,99277.66
2022-11-23T17:17:05.389Z,99278.91
2022-11-23T17:19:51.325Z,99282.63
2022-11-23T17:22:36.421Z,99283.16
2022-11-23T17:25:21.441Z,99287.28
2022-11-23T17:28:14.932Z,99273.50
2022-11-23T17:30:59.834Z,99283.44
2022-11-23T17:33:45.189Z,99278.28
2022-11-23T17:36:31.625Z,99307.91
2022-11-23T17:39:25.408Z,99286.28
2022-11-23T17:42:13.987Z,99310.78
2022-11-23T17:44:59.130Z,99302.94
2022-11-23T17:47:44.957Z,99316.00
2022-11-23T17:50:30.157Z,99305.56
2022-11-23T17:53:15.291Z,99305.81
2022-11-23T17:56:00.496Z,99300.59
2022-11-23T17:58:46.184Z,99315.03
2022-11-23T18:01:31.554Z,99307.06
2022-11-23T18:04:16.648Z,99310.66
2022-11-23T18:07:02.182Z,99312.56
2022-11-23T18:09:46.975Z,99318.91
2022-11-23T18:12:32.025Z,99312.56
2022-11-23T18:15:17.275Z,99298.91
2022-11-23T18:18:04.809Z,99316.88
2022-11-23T18:20:50.127Z,99309.84
2022-11-23T18:23:35.757Z,99316.72
2022-11-23T18:26:29.956Z,99316.88
2022-11-23T18:29:17.306Z,99323.47
2022-11-23T18:32:04.420Z,99323.63
2022-11-23T18:34:49.491Z,99322.38
2022-11-23T18:37:34.719Z,99312.59
2022-11-23T18:40:19.791Z,99335.19
2022-11-23T18:43:04.902Z,99326.09
2022-11-23T18:45:50.194Z,99333.28
2022-11-23T18:48:36.073Z,99344.72
2022-11-23T18:51:21.117Z,99340.72
2022-11-23T18:54:05.881Z,99389.09
2022-11-23T18:56:50.906Z,99409.88
2022-11-23T19:02:41.624Z,99396.78
2022-11-23T19:05:33.231Z,99391.66
2022-11-23T19:08:18.072Z,99353.81
2022-11-23T19:11:17.517Z,99384.53
2022-11-23T19:14:03.302Z,99388.09
2022-11-23T19:16:48.610Z,99362.44
2022-11-23T19:19:33.828Z,99385.88
2022-11-23T19:22:19.072Z,99382.31
2022-11-23T19:25:04.447Z,99373.44
2022-11-23T19:27:51.305Z,99392.63
2022-11-23T19:30:36.588Z,99387.25
2022-11-23T19:33:21.782Z,99389.75
2022-11-23T19:36:09.221Z,99398.31
2022-11-23T19:38:56.448Z,99396.63
2022-11-23T19:41:41.775Z,99399.84
2022-11-23T19:44:27.132Z,99394.44
2022-11-23T19:47:17.515Z,99406.16
2022-11-23T19:50:05.978Z,99413.00
2022-11-23T19:53:11.222Z,99411.19
2022-11-23T19:56:08.189Z,99423.34
2022-11-23T19:58:55.646Z,99413.09
2022-11-23T20:01:40.883Z,99435.97
2022-11-23T20:04:26.058Z,99444.75
2022-11-23T20:07:12.811Z,99448.78
2022-11-23T20:09:58.193Z,99454.00
2022-11-23T20:12:43.082Z,99448.91
2022-11-23T20:15:28.452Z,99439.78
2022-11-23T20:18:14.116Z,99446.03
2022-11-23T20:20:59.386Z,99453.41
2022-11-23T20:23:45.939Z,99439.34
2022-11-23T20:26:31.012Z,99460.44
2022-11-23T20:29:16.278Z,99457.81
2022-11-23T20:32:01.707Z,99467.31
2022-11-23T20:34:47.025Z,99460.16
2022-11-23T20:37:33.768Z,99462.66
2022-11-23T20:40:19.152Z,99458.16
2022-11-23T20:43:04.189Z,99473.69
2022-11-23T20:45:49.853Z,99477.56
2022-11-23T20:48:39.285Z,99485.81
2022-11-23T20:51:26.586Z,99478.22
2022-11-23T20:54:12.225Z,99489.09
2022-11-23T20:56:59.888Z,99489.88
2022-11-23T20:59:45.064Z,99499.00
2022-11-23T21:02:30.182Z,99486.81
2022-11-23T21:05:15.445Z,99498.28
2022-11-23T21:08:01.327Z,99495.66
2022-11-23T21:11:04.901Z,99505.91
2022-11-23T21:14:14.044Z,99513.59
2022-11-23T21:17:02.582Z,99502.94
2022-11-23T21:19:47.931Z,99513.03
2022-11-23T21:22:33.170Z,99526.56
2022-11-23T21:25:18.530Z,99524.19
2022-11-23T21:28:03.941Z,99513.75
2022-11-23T21:30:49.023Z,99521.06
2022-11-23T21:33:36.491Z,99515.56
2022-11-23T21:36:22.329Z,99508.56
2022-11-23T21:39:10.364Z,99520.44
2022-11-23T21:41:55.441Z,99520.56
2022-11-23T21:44:40.698Z,99500.66
2022-11-23T21:47:25.641Z,99513.34
2022-11-23T21:50:10.908Z,99522.00
2022-11-23T21:52:55.718Z,99525.47
2022-11-23T21:55:40.721Z,99522.97
2022-11-23T21:58:25.534Z,99520.47
2022-11-23T22:01:13.523Z,99508.88
2022-11-23T22:04:08.595Z,99522.00
2022-11-23T22:06:53.520Z,99529.03
2022-11-23T22:09:38.781Z,99531.63
2022-11-23T22:12:23.844Z,99528.53
2022-11-23T22:15:10.489Z,99523.06
2022-11-23T22:17:55.680Z,99507.75
2022-11-23T22:20:41.143Z,99534.31
2022-11-23T22:23:26.369Z,99524.00
2022-11-23T22:26:13.384Z,99530.50
2022-11-23T22:29:02.879Z,99550.59
2022-11-23T22:31:48.148Z,99575.63
2022-11-23T22:34:35.169Z,99567.09
2022-11-23T22:37:20.667Z,99578.06
2022-11-23T22:40:06.368Z,99576.78
2022-11-23T22:42:52.573Z,99594.63
2022-11-23T22:45:37.583Z,99594.66
2022-11-23T22:48:22.805Z,99613.91
2022-11-23T22:51:10.262Z,99605.88
2022-11-23T22:53:59.520Z,99625.97
2022-11-23T22:56:44.640Z,99622.28
2022-11-23T22:59:29.848Z,99595.00
2022-11-23T23:02:15.068Z,99595.47
2022-11-23T23:05:00.437Z,99606.34
2022-11-23T23:07:45.736Z,99612.53
2022-11-23T23:10:31.291Z,99623.69
2022-11-23T23:13:16.789Z,99608.50
2022-11-23T23:16:06.739Z,99623.94
2022-11-23T23:18:52.121Z,99620.72
2022-11-23T23:21:37.368Z,99625.22
2022-11-23T23:24:22.241Z,99641.00
2022-11-23T23:27:07.240Z,99650.50
2022-11-23T23:29:52.232Z,99645.75
2022-11-23T23:32:37.273Z,99644.81
2022-11-23T23:35:22.308Z,99616.09
2022-11-23T23:38:07.502Z,99621.06
2022-11-23T23:40:55.329Z,99657.16
2022-11-23T23:43:41.240Z,99660.69
2022-11-23T23:46:26.116Z,99631.25
2022-11-23T23:49:11.391Z,99647.66
2022-11-23T23:51:56.272Z,99656.09
2022-11-23T23:54:41.214Z,99651.13
2022-11-23T23:57:26.110Z,99636.47
